Time;durP1;ratioP1;P1;durP2;ratioP2;P2;SDS_P1;SDS_P2;PMS_P1;PMS_P2;Temp;Humidity;BMP_temperature;BMP_pressure;BME280_temperature;BME280_humidity;BME280_pressure;Samples;Min_cycle;Max_cycle;Signal;HPM_P1;HPM_P2
2021/10/15 00:02:03;;;;;;;7.60;5.70;;;;;;;8.26;82.90;99360.29;112532;1192;61148;-88
2021/10/15 00:04:29;;;;;;;10.60;6.60;;;;;;;8.27;82.94;99355.16;112577;1192;61023;-88
2021/10/15 00:06:56;;;;;;;8.80;6.30;;;;;;;8.26;82.89;99353.41;112738;1192;64717;-88
2021/10/15 00:09:23;;;;;;;8.40;6.50;;;;;;;8.25;82.93;99354.02;112759;1192;61017;-88
2021/10/15 00:11:50;;;;;;;9.70;7.00;;;;;;;8.23;82.97;99354.11;112734;1191;63925;-88
2021/10/15 00:14:16;;;;;;;9.60;7.30;;;;;;;8.24;83.01;99355.13;112829;1190;61004;-89
2021/10/15 00:16:43;;;;;;;11.10;8.10;;;;;;;8.25;83.06;99353.48;112644;1192;61081;-88
2021/10/15 00:19:10;;;;;;;12.00;7.10;;;;;;;8.24;83.02;99349.98;112624;1191;64635;-88
2021/10/15 00:21:36;;;;;;;10.70;7.70;;;;;;;8.24;82.98;99350.51;112616;1192;61060;-88
2021/10/15 00:24:03;;;;;;;10.70;7.60;;;;;;;8.25;83.00;99352.58;112593;1192;64118;-88
2021/10/15 00:26:30;;;;;;;13.00;7.50;;;;;;;8.25;83.12;99352.02;112744;1190;61124;-88
2021/10/15 00:28:57;;;;;;;9.20;7.20;;;;;;;8.25;83.25;99348.52;112671;1192;61179;-88
2021/10/15 00:31:23;;;;;;;9.50;6.70;;;;;;;8.25;83.16;99353.11;112775;1193;64462;-88
2021/10/15 00:33:50;;;;;;;8.60;6.70;;;;;;;8.26;83.24;99353.09;112657;1192;61109;-90
2021/10/15 00:36:16;;;;;;;8.70;5.90;;;;;;;8.27;83.16;99351.40;112655;1193;62634;-90
2021/10/15 00:38:43;;;;;;;9.80;6.00;;;;;;;8.29;83.18;99349.73;112657;1190;61020;-88
2021/10/15 00:41:10;;;;;;;9.80;6.30;;;;;;;8.30;83.18;99349.67;112668;1191;60978;-87
2021/10/15 00:43:36;;;;;;;7.20;6.20;;;;;;;8.31;83.22;99345.73;112625;1193;66041;-91
2021/10/15 00:46:03;;;;;;;9.50;6.80;;;;;;;8.32;83.11;99340.52;112632;1193;61021;-88
2021/10/15 00:48:30;;;;;;;9.00;6.40;;;;;;;8.31;83.19;99336.66;112702;1192;64550;-88
2021/10/15 00:50:56;;;;;;;11.50;6.60;;;;;;;8.30;83.23;99333.59;112673;1193;61081;-88
2021/10/15 00:53:23;;;;;;;9.40;6.80;;;;;;;8.30;83.30;99330.93;112586;1191;61905;-90
2021/10/15 00:55:50;;;;;;;10.20;7.00;;;;;;;8.28;83.35;99328.15;112665;1192;66020;-89
2021/10/15 00:58:16;;;;;;;8.30;6.40;;;;;;;8.27;83.44;99324.14;112710;1192;61110;-88
2021/10/15 01:00:43;;;;;;;9.20;6.60;;;;;;;8.27;83.41;99316.52;112589;1192;62292;-88
2021/10/15 01:03:10;;;;;;;9.30;6.50;;;;;;;8.27;83.52;99314.25;112627;1192;61106;-88
2021/10/15 01:05:36;;;;;;;10.80;7.20;;;;;;;8.25;83.59;99311.84;112753;1190;61036;-88
2021/10/15 01:08:03;;;;;;;8.10;6.70;;;;;;;8.24;83.63;99308.91;112544;1193;64626;-88
2021/10/15 01:10:31;;;;;;;10.00;7.20;;;;;;;8.24;83.67;99308.94;112643;1193;61125;-89
2021/10/15 01:12:59;;;;;;;9.20;6.40;;;;;;;8.22;83.81;99309.04;112681;1193;63835;-88
2021/10/15 01:15:26;;;;;;;9.20;7.40;;;;;;;8.20;83.84;99306.15;112778;1190;60975;-91
2021/10/15 01:17:52;;;;;;;11.20;7.00;;;;;;;8.18;83.91;99304.98;112608;1190;61022;-88
2021/10/15 01:20:19;;;;;;;9.40;6.80;;;;;;;8.19;84.00;99305.85;112687;1193;66175;-89
2021/10/15 01:22:46;;;;;;;8.40;6.70;;;;;;;8.19;83.95;99303.34;112649;1192;61089;-89
2021/10/15 01:25:12;;;;;;;9.00;7.50;;;;;;;8.19;84.08;99302.61;112579;1192;62335;-91
2021/10/15 01:27:39;;;;;;;11.50;8.40;;;;;;;8.21;84.16;99298.48;112838;1190;61030;-90
2021/10/15 01:30:06;;;;;;;10.40;8.20;;;;;;;8.22;84.28;99292.39;112977;1190;61023;-89
2021/10/15 01:32:33;;;;;;;9.20;7.40;;;;;;;8.25;84.27;99294.00;112800;1192;65980;-89
2021/10/15 01:35:00;;;;;;;11.30;8.80;;;;;;;8.25;84.41;99288.86;112667;1192;61011;-90
2021/10/15 01:37:26;;;;;;;11.30;8.40;;;;;;;8.23;84.33;99287.91;112742;1193;63705;-89
2021/10/15 01:39:53;;;;;;;12.10;9.20;;;;;;;8.21;84.51;99288.55;112801;1190;60976;-89
2021/10/15 01:45:05;;;;;;;13.30;9.60;;;;;;;8.18;84.62;99286.79;112875;1193;66027;-90
2021/10/15 01:47:32;;;;;;;13.80;9.30;;;;;;;8.17;84.77;99289.30;112782;1193;61065;-90
2021/10/15 01:49:59;;;;;;;14.90;10.00;;;;;;;8.16;84.78;99285.80;112634;1190;62626;-90
2021/10/15 01:52:25;;;;;;;15.80;10.50;;;;;;;8.14;84.86;99285.02;112638;1193;60943;-90
2021/10/15 01:54:52;;;;;;;16.20;11.20;;;;;;;8.10;84.94;99285.23;112672;1190;60970;-90
2021/10/15 01:57:19;;;;;;;17.60;9.80;;;;;;;8.08;85.03;99287.63;112625;1191;66134;-90
2021/10/15 01:59:45;;;;;;;16.00;10.70;;;;;;;8.07;85.12;99288.25;112755;1193;61077;-89
2021/10/15 02:02:12;;;;;;;15.80;10.20;;;;;;;8.05;85.26;99288.14;112798;1193;64319;-89
2021/10/15 02:04:39;;;;;;;13.10;9.00;;;;;;;8.01;85.23;99284.64;112674;1192;61042;-90
2021/10/15 02:07:05;;;;;;;13.30;10.20;;;;;;;8.00;85.35;99281.83;112610;1192;61010;-90
2021/10/15 02:09:32;;;;;;;14.40;11.40;;;;;;;8.02;85.46;99278.56;112628;1192;64632;-89
2021/10/15 02:12:02;;;;;;;15.20;11.60;;;;;;;8.04;85.52;99276.13;112632;1193;61081;-90
2021/10/15 02:14:30;;;;;;;15.10;11.60;;;;;;;8.08;85.61;99273.64;112671;1192;62633;-90
2021/10/15 02:16:57;;;;;;;15.10;10.50;;;;;;;8.12;85.75;99267.24;112625;1192;61162;-90
2021/10/15 02:19:24;;;;;;;16.20;11.60;;;;;;;8.15;85.67;99268.48;112772;1190;61014;-90
2021/10/15 02:21:51;;;;;;;17.30;11.80;;;;;;;8.13;85.64;99267.39;112643;1192;64777;-90
2021/10/15 02:24:18;;;;;;;15.80;12.20;;;;;;;8.09;85.65;99269.02;112701;1193;61023;-90
2021/10/15 02:26:45;;;;;;;20.30;13.70;;;;;;;8.02;85.69;99272.36;112693;1193;62940;-90
2021/10/15 02:29:12;;;;;;;18.30;13.90;;;;;;;7.96;85.73;99271.29;112623;1192;60921;-90
2021/10/15 02:31:38;;;;;;;20.60;13.20;;;;;;;7.90;85.84;99271.73;112709;1190;61104;-90
2021/10/15 02:34:05;;;;;;;19.70;12.50;;;;;;;7.85;85.96;99272.20;112574;1193;66098;-90
2021/10/15 02:36:32;;;;;;;18.80;13.30;;;;;;;7.81;86.06;99268.35;112665;1192;61046;-89
2021/10/15 02:38:59;;;;;;;15.50;12.20;;;;;;;7.79;86.23;99267.88;112708;1192;63989;-90
2021/10/15 02:41:26;;;;;;;17.40;13.20;;;;;;;7.81;86.34;99264.98;112613;1192;61001;-89
2021/10/15 02:43:53;;;;;;;16.40;13.50;;;;;;;7.82;86.39;99267.02;112646;1190;61026;-90
2021/10/15 02:46:20;;;;;;;18.30;14.00;;;;;;;7.85;86.43;99263.88;112696;1191;64747;-90
2021/10/15 02:48:46;;;;;;;16.50;14.50;;;;;;;7.84;86.45;99262.67;112650;1191;61036;-90
2021/10/15 02:51:13;;;;;;;17.90;14.40;;;;;;;7.88;86.57;99262.86;112632;1193;64013;-90
2021/10/15 02:53:40;;;;;;;17.00;15.00;;;;;;;7.90;86.65;99265.04;112623;1192;61125;-90
2021/10/15 02:56:08;;;;;;;28.90;20.30;;;;;;;7.90;86.71;99264.15;112673;1190;61087;-90
2021/10/15 02:58:34;;;;;;;22.00;18.80;;;;;;;7.91;86.73;99263.22;112591;1192;64768;-89
2021/10/15 03:01:01;;;;;;;22.50;18.40;;;;;;;7.93;86.85;99259.21;112707;1192;61062;-89
2021/10/15 03:03:28;;;;;;;19.60;14.50;;;;;;;7.96;86.90;99257.85;112668;1193;62624;-90
2021/10/15 03:05:54;;;;;;;17.50;12.60;;;;;;;7.98;86.94;99254.73;112571;1192;61028;-90
2021/10/15 03:08:21;;;;;;;15.90;11.40;;;;;;;8.01;87.06;99251.53;112511;1192;60959;-89
2021/10/15 03:10:48;;;;;;;17.80;10.70;;;;;;;8.04;87.12;99250.68;112609;1191;66048;-90
2021/10/15 03:13:14;;;;;;;15.80;10.50;;;;;;;8.07;87.21;99248.40;112610;1193;61004;-90
2021/10/15 03:15:41;;;;;;;12.50;10.00;;;;;;;8.10;87.22;99246.43;112608;1193;62624;-90
2021/10/15 03:18:08;;;;;;;12.70;10.70;;;;;;;8.10;87.32;99240.26;112681;1190;61062;-90
2021/10/15 03:20:38;;;;;;;13.50;11.00;;;;;;;8.11;87.42;99241.45;112644;1190;61489;-90
2021/10/15 03:23:06;;;;;;;14.00;10.90;;;;;;;8.13;87.46;99241.70;112715;1193;66003;-90
2021/10/15 03:25:33;;;;;;;18.60;12.80;;;;;;;8.15;87.51;99242.14;112693;1192;60786;-90
2021/10/15 03:28:00;;;;;;;17.30;12.20;;;;;;;8.16;87.53;99249.16;112641;1192;63757;-90
2021/10/15 03:30:26;;;;;;;15.60;11.90;;;;;;;8.14;87.56;99247.67;112557;1192;60975;-90
2021/10/15 03:32:53;;;;;;;14.70;11.10;;;;;;;8.15;87.69;99243.77;112611;1192;61243;-89
2021/10/15 03:35:20;;;;;;;15.90;11.60;;;;;;;8.18;87.76;99243.94;112565;1193;64640;-88
2021/10/15 03:37:47;;;;;;;13.70;10.90;;;;;;;8.21;87.79;99241.66;112592;1192;61030;-88
2021/10/15 03:40:14;;;;;;;13.10;11.00;;;;;;;8.23;87.87;99238.70;112561;1193;62687;-91
2021/10/15 03:42:41;;;;;;;13.70;11.00;;;;;;;8.26;87.92;99238.70;112554;1192;61090;-90
2021/10/15 03:45:08;;;;;;;15.30;12.40;;;;;;;8.27;88.03;99237.77;112666;1190;61052;-90
2021/10/15 03:47:36;;;;;;;17.80;13.00;;;;;;;8.26;88.05;99237.80;112587;1192;65682;-88
2021/10/15 03:50:05;;;;;;;14.90;13.30;;;;;;;8.25;88.05;99236.27;112810;1192;61084;-89
2021/10/15 03:52:32;;;;;;;14.40;13.10;;;;;;;8.24;88.12;99235.09;112626;1193;63983;-89
2021/10/15 03:54:59;;;;;;;14.90;13.30;;;;;;;8.22;88.11;99233.95;112709;1190;61113;-91
2021/10/15 03:57:26;;;;;;;17.60;13.90;;;;;;;8.21;88.22;99232.80;112743;1191;61142;-91
2021/10/15 03:59:53;;;;;;;14.90;13.20;;;;;;;8.18;88.20;99232.09;112734;1192;64659;-88
2021/10/15 04:02:19;;;;;;;15.60;13.20;;;;;;;8.15;88.32;99232.55;112635;1192;61017;-89
2021/10/15 04:04:46;;;;;;;16.20;13.30;;;;;;;8.11;88.30;99230.45;112622;1191;62783;-89
2021/10/15 04:07:13;;;;;;;18.40;13.60;;;;;;;8.07;88.37;99235.27;112597;1191;61046;-89
2021/10/15 04:09:39;;;;;;;15.20;13.60;;;;;;;8.04;88.41;99237.25;112619;1192;60943;-89
2021/10/15 04:12:07;;;;;;;15.50;13.90;;;;;;;8.01;88.50;99239.53;112878;1192;66025;-89
2021/10/15 04:14:34;;;;;;;15.70;13.60;;;;;;;7.98;88.61;99242.30;112680;1192;61127;-88
2021/10/15 04:17:00;;;;;;;18.20;14.80;;;;;;;7.96;88.76;99241.17;112706;1193;64047;-88
2021/10/15 04:19:27;;;;;;;15.50;13.90;;;;;;;7.94;88.83;99246.23;112560;1193;61193;-89
2021/10/15 04:21:53;;;;;;;18.60;16.10;;;;;;;7.94;88.88;99248.74;112652;1193;61135;-89
2021/10/15 04:24:20;;;;;;;18.90;15.70;;;;;;;7.92;88.92;99245.11;112635;1192;66120;-89
2021/10/15 04:26:47;;;;;;;19.20;15.80;;;;;;;7.93;89.06;99242.59;112714;1192;60997;-90
2021/10/15 04:29:13;;;;;;;22.30;17.20;;;;;;;7.94;89.10;99237.03;112440;1193;64042;-91
2021/10/15 04:31:40;;;;;;;24.90;19.00;;;;;;;7.95;89.11;99239.15;112578;1192;61123;-89
2021/10/15 04:34:07;;;;;;;19.50;17.40;;;;;;;7.94;89.15;99234.41;112630;1192;61059;-89
2021/10/15 04:36:35;;;;;;;20.90;16.70;;;;;;;7.93;89.22;99231.27;112805;1193;65699;-88
2021/10/15 04:39:02;;;;;;;21.00;16.30;;;;;;;7.91;89.24;99229.60;112793;1192;61077;-89
2021/10/15 04:41:30;;;;;;;21.30;16.70;;;;;;;7.88;89.30;99230.81;112775;1177;62618;-90
2021/10/15 04:43:56;;;;;;;18.70;16.00;;;;;;;7.83;89.28;99228.45;112836;1193;60949;-89
2021/10/15 04:46:23;;;;;;;18.70;15.70;;;;;;;7.78;89.45;99228.86;112730;1192;61218;-88
2021/10/15 04:48:50;;;;;;;16.00;14.20;;;;;;;7.76;89.55;99227.05;112648;1192;64634;-89
2021/10/15 04:51:16;;;;;;;15.80;13.40;;;;;;;7.73;89.64;99224.02;112704;1193;60975;-89
2021/10/15 04:53:43;;;;;;;19.90;13.40;;;;;;;7.72;89.75;99218.58;112535;1192;64816;-89
2021/10/15 04:56:10;;;;;;;16.90;13.90;;;;;;;7.70;89.85;99216.35;112675;1190;60966;-90
2021/10/15 04:58:36;;;;;;;16.40;14.80;;;;;;;7.69;89.83;99212.34;112705;1192;61120;-89
2021/10/15 05:01:03;;;;;;;17.90;14.00;;;;;;;7.69;89.91;99210.72;112825;1193;64625;-89
2021/10/15 05:03:30;;;;;;;16.80;13.90;;;;;;;7.69;90.04;99208.80;112806;1192;61039;-90
2021/10/15 05:05:57;;;;;;;19.50;15.60;;;;;;;7.67;90.10;99205.89;112640;1193;64639;-91
2021/10/15 05:08:30;;;;;;;18.20;13.80;;;;;;;7.67;90.08;99203.77;112458;1193;61048;-90
2021/10/15 05:10:57;;;;;;;16.70;14.50;;;;;;;7.67;90.06;99202.02;112725;1192;60969;-89
2021/10/15 05:13:24;;;;;;;17.70;15.70;;;;;;;7.66;90.11;99201.89;112616;1193;66024;-89
2021/10/15 05:15:51;;;;;;;18.90;16.50;;;;;;;7.66;90.18;99202.41;112757;1191;61135;-91
2021/10/15 05:18:18;;;;;;;18.70;15.60;;;;;;;7.66;90.24;99200.29;113562;1192;62554;-89
2021/10/15 05:20:45;;;;;;;24.10;16.10;;;;;;;7.66;90.30;99200.98;113204;1192;60975;-90
2021/10/15 05:23:13;;;;;;;21.10;16.90;;;;;;;7.64;90.40;99203.55;112677;1190;60969;-90
2021/10/15 05:25:41;;;;;;;19.40;17.40;;;;;;;7.60;90.44;99204.47;112742;1192;64679;-91
2021/10/15 05:28:07;;;;;;;22.30;19.60;;;;;;;7.55;90.53;99204.95;112533;1191;61065;-90
2021/10/15 05:30:34;;;;;;;24.10;21.30;;;;;;;7.50;90.60;99208.20;112412;1193;62635;-91
2021/10/15 05:33:01;;;;;;;26.70;23.50;;;;;;;7.44;90.67;99209.92;112689;1181;61516;-91
2021/10/15 05:35:28;;;;;;;38.10;34.10;;;;;;;7.38;90.83;99211.95;112669;1193;61045;-89
2021/10/15 05:37:54;;;;;;;38.50;34.50;;;;;;;7.34;90.91;99209.17;112528;1192;66026;-90
2021/10/15 05:40:21;;;;;;;37.60;33.30;;;;;;;7.30;90.93;99208.13;112553;1192;61036;-90
2021/10/15 05:42:49;;;;;;;35.30;31.50;;;;;;;7.24;90.93;99200.82;112454;1192;72644;-91
2021/10/15 05:45:17;;;;;;;43.30;38.60;;;;;;;7.22;91.00;99206.92;112622;1190;61440;-90
2021/10/15 05:47:44;;;;;;;49.00;41.80;;;;;;;7.21;91.15;99207.16;112720;1190;61046;-90
2021/10/15 05:50:11;;;;;;;51.90;44.90;;;;;;;7.22;91.23;99207.46;112648;1192;64618;-90
2021/10/15 05:52:46;;;;;;;42.80;38.30;;;;;;;7.22;91.28;99203.41;112855;1193;61000;-90
2021/10/15 06:00:29;;;;;;;41.00;36.50;;;;;;;7.26;91.33;99196.83;112646;1193;60995;-90
2021/10/15 06:02:56;;;;;;;44.80;37.00;;;;;;;7.28;91.34;99195.34;112910;1191;64316;-90
2021/10/15 06:16:11;;;;;;;46.10;40.50;;;;;;;7.39;91.18;99190.16;112773;1191;66029;-89
2021/10/15 06:18:39;;;;;;;42.70;37.50;;;;;;;7.53;91.23;99190.02;112831;1193;61055;-89
2021/10/15 06:21:07;;;;;;;59.00;40.90;;;;;;;7.69;91.26;99192.20;112645;1192;62993;-91
2021/10/15 06:23:33;;;;;;;45.80;38.70;;;;;;;7.88;91.18;99193.47;112583;1192;61151;-92
2021/10/15 06:26:01;;;;;;;54.60;40.10;;;;;;;8.07;91.11;99193.90;112618;1191;61036;-90
2021/10/15 06:28:29;;;;;;;57.20;37.50;;;;;;;8.20;90.87;99188.03;112620;1193;66000;-90
2021/10/15 06:30:55;;;;;;;77.30;38.80;;;;;;;8.34;90.81;99188.02;112710;1193;61033;-90
2021/10/15 06:33:22;;;;;;;113.30;43.60;;;;;;;8.48;90.72;99188.53;112658;1193;62964;-90
2021/10/15 06:35:49;;;;;;;74.00;34.40;;;;;;;8.63;90.60;99188.73;112849;1192;61136;-90
2021/10/15 06:38:16;;;;;;;110.20;37.50;;;;;;;8.79;90.43;99186.42;112795;1192;60966;-90
2021/10/15 06:40:43;;;;;;;76.10;33.30;;;;;;;8.95;90.30;99184.27;112680;1193;64967;-91
2021/10/15 06:43:11;;;;;;;55.50;32.20;;;;;;;9.13;90.18;99187.31;112599;1192;61040;-91
2021/10/15 06:45:38;;;;;;;56.60;32.60;;;;;;;9.29;90.02;99182.88;112432;1193;63073;-90
2021/10/15 06:48:05;;;;;;;41.10;34.30;;;;;;;9.44;89.88;99186.25;112613;1192;61065;-90
2021/10/15 06:50:33;;;;;;;35.70;31.40;;;;;;;9.57;89.65;99185.44;112684;1193;61100;-91
2021/10/15 06:53:00;;;;;;;30.40;25.50;;;;;;;9.70;89.47;99185.70;112607;1191;66299;-91
2021/10/15 06:55:27;;;;;;;24.30;21.70;;;;;;;9.83;89.27;99187.05;112598;1193;61116;-91
2021/10/15 06:57:54;;;;;;;24.70;21.90;;;;;;;9.96;88.92;99182.71;112678;1193;63998;-91
2021/10/15 07:00:21;;;;;;;23.40;20.90;;;;;;;10.08;88.84;99182.52;112644;1193;61049;-91
2021/10/15 07:02:47;;;;;;;26.30;19.70;;;;;;;10.20;88.74;99180.55;112660;1192;61075;-91
2021/10/15 07:05:14;;;;;;;23.20;18.60;;;;;;;10.31;88.47;99184.49;112638;1191;64332;-91
2021/10/15 07:07:41;;;;;;;19.40;14.60;;;;;;;10.42;88.28;99182.20;112749;1193;61065;-91
2021/10/15 07:10:09;;;;;;;20.30;14.70;;;;;;;10.50;87.83;99181.68;112570;1192;64002;-91
2021/10/15 07:12:37;;;;;;;17.00;13.90;;;;;;;10.57;87.67;99180.88;112601;1178;61078;-91
2021/10/15 07:15:05;;;;;;;17.40;12.50;;;;;;;10.66;87.57;99178.17;112658;1191;60985;-92
2021/10/15 07:17:32;;;;;;;15.90;11.80;;;;;;;10.73;87.08;99179.86;112586;1193;66025;-91
2021/10/15 07:19:59;;;;;;;16.20;12.60;;;;;;;10.82;86.86;99179.47;112686;1193;61193;-91
2021/10/15 07:22:26;;;;;;;13.80;11.70;;;;;;;10.88;86.63;99173.91;112666;1192;63994;-91
2021/10/15 07:24:53;;;;;;;18.30;11.70;;;;;;;10.95;86.53;99173.27;112813;1191;61024;-91
2021/10/15 07:27:20;;;;;;;17.20;12.50;;;;;;;11.06;86.48;99168.27;112677;1193;60934;-91
2021/10/15 07:29:46;;;;;;;18.30;14.60;;;;;;;11.20;86.08;99165.43;112614;1192;66013;-91
2021/10/15 07:32:13;;;;;;;22.40;15.60;;;;;;;11.30;85.58;99170.09;112654;1192;61189;-92
2021/10/15 07:34:40;;;;;;;18.10;15.30;;;;;;;11.43;85.38;99168.30;112633;1193;62608;-91
2021/10/15 07:37:07;;;;;;;22.00;14.90;;;;;;;11.55;85.09;99164.68;112654;1192;61036;-91
2021/10/15 07:39:34;;;;;;;25.80;15.80;;;;;;;11.68;84.95;99162.69;112690;1191;61142;-91
2021/10/15 07:42:01;;;;;;;24.20;17.10;;;;;;;11.80;84.81;99164.91;112815;1193;65990;-91
2021/10/15 07:44:27;;;;;;;24.00;18.30;;;;;;;11.90;84.77;99161.00;112746;1192;61377;-91
2021/10/15 07:46:54;;;;;;;25.60;18.50;;;;;;;12.00;84.23;99159.97;112561;1193;62631;-91
2021/10/15 07:49:21;;;;;;;27.00;18.30;;;;;;;12.09;83.93;99152.79;112701;1192;61132;-84
2021/10/15 07:51:48;;;;;;;26.00;17.10;;;;;;;12.22;83.97;99148.27;112714;1190;61043;-85
2021/10/15 07:54:15;;;;;;;23.60;17.90;;;;;;;12.37;83.56;99151.45;112594;1192;66483;-86
2021/10/15 07:56:43;;;;;;;24.20;16.80;;;;;;;12.46;83.23;99147.59;112618;1193;60959;-87
2021/10/15 07:59:10;;;;;;;23.90;16.50;;;;;;;12.53;82.91;99150.35;112702;1193;62635;-87
2021/10/15 08:01:37;;;;;;;24.60;16.50;;;;;;;12.64;82.80;99152.23;112561;1192;61001;-87
2021/10/15 08:04:04;;;;;;;19.30;15.20;;;;;;;12.75;82.54;99151.17;112767;1192;60981;-87
2021/10/15 08:06:30;;;;;;;23.50;15.40;;;;;;;12.89;82.47;99150.92;112707;1193;66011;-86
2021/10/15 08:08:57;;;;;;;20.90;13.90;;;;;;;13.04;82.02;99149.80;112660;1192;61640;-86
2021/10/15 08:11:24;;;;;;;22.20;15.00;;;;;;;13.08;81.05;99149.48;112645;1193;63991;-86
2021/10/15 08:13:50;;;;;;;19.40;14.30;;;;;;;13.05;80.63;99148.42;112621;1191;61030;-86
2021/10/15 08:16:19;;;;;;;19.00;14.80;;;;;;;13.08;80.79;99149.50;112707;1190;61057;-86
2021/10/15 08:18:47;;;;;;;20.30;15.30;;;;;;;13.18;80.76;99149.09;112722;1193;65661;-86
2021/10/15 08:21:15;;;;;;;19.90;14.00;;;;;;;13.31;80.75;99145.84;112683;1191;60965;-86
2021/10/15 08:23:44;;;;;;;19.00;14.40;;;;;;;13.44;80.62;99147.68;112604;1192;62616;-86
2021/10/15 08:26:12;;;;;;;18.80;14.60;;;;;;;13.55;80.28;99146.50;112630;1190;61023;-86
2021/10/15 08:28:40;;;;;;;23.30;16.00;;;;;;;13.64;79.91;99145.09;112632;1192;61084;-86
2021/10/15 08:31:08;;;;;;;24.90;16.50;;;;;;;13.72;79.68;99140.02;112720;1193;66010;-86
2021/10/15 08:33:34;;;;;;;23.90;16.30;;;;;;;13.79;79.51;99137.84;112784;1193;61024;-86
2021/10/15 08:36:01;;;;;;;19.50;14.30;;;;;;;13.89;79.56;99137.60;112859;1192;63985;-86
2021/10/15 08:38:28;;;;;;;20.20;14.50;;;;;;;13.97;79.01;99140.23;112702;1193;61109;-86
2021/10/15 08:40:54;;;;;;;14.90;9.30;;;;;;;14.00;78.68;99140.13;112661;1190;61032;-86
2021/10/15 08:43:32;;;;;;;11.70;7.20;;;;;;;14.06;78.49;99137.52;112733;1192;65998;-86
2021/10/15 08:46:01;;;;;;;10.00;5.60;;;;;;;14.13;78.13;99134.11;112751;1193;61155;-86
2021/10/15 08:48:28;;;;;;;8.60;4.50;;;;;;;14.20;77.82;99131.05;112723;1193;64070;-86
2021/10/15 08:50:56;;;;;;;7.00;3.90;;;;;;;14.26;77.37;99127.53;112710;1190;59808;-86
2021/10/15 08:53:23;;;;;;;5.10;3.20;;;;;;;14.31;76.95;99126.40;112761;1191;61146;-86
2021/10/15 08:55:50;;;;;;;4.70;3.70;;;;;;;14.35;76.02;99122.35;112676;1193;64681;-86
2021/10/15 08:58:18;;;;;;;4.40;3.20;;;;;;;14.34;75.57;99124.77;112586;1192;61065;-87
2021/10/15 09:00:45;;;;;;;3.90;2.60;;;;;;;14.39;75.33;99121.52;112660;1192;65002;-87
2021/10/15 09:03:18;;;;;;;3.10;2.60;;;;;;;14.44;74.50;99120.70;112776;1188;61507;-88
2021/10/15 09:05:56;;;;;;;3.20;2.60;;;;;;;14.41;73.69;99122.38;112702;1190;60972;-86
2021/10/15 09:08:24;;;;;;;5.30;3.10;;;;;;;14.44;74.23;99119.33;112658;1193;66021;-86
2021/10/15 09:10:51;;;;;;;2.90;2.60;;;;;;;14.44;73.91;99118.37;112702;1190;60997;-87
2021/10/15 09:13:20;;;;;;;4.20;2.90;;;;;;;14.41;73.55;99118.13;112718;1191;63743;-86
2021/10/15 09:15:50;;;;;;;4.30;3.10;;;;;;;14.38;73.60;99117.67;112736;1191;61075;-86
2021/10/15 09:18:29;;;;;;;4.60;2.80;;;;;;;14.32;73.23;99120.85;112743;1193;61059;-86
2021/10/15 09:20:57;;;;;;;3.30;3.00;;;;;;;14.21;72.96;99117.77;112754;1193;66012;-87
2021/10/15 09:23:47;;;;;;;3.90;3.10;;;;;;;14.13;73.06;99119.45;112675;1193;61011;-87
2021/10/15 09:26:15;;;;;;;;;;;;;;;14.12;73.10;99116.67;112721;1193;64066;-86
2021/10/15 09:28:46;;;;;;;4.10;3.30;;;;;;;14.16;73.36;99115.11;112673;1190;61049;-89
2021/10/15 09:31:14;;;;;;;5.20;3.70;;;;;;;14.25;73.41;99111.70;112729;1192;61050;-88
2021/10/15 09:33:59;;;;;;;5.10;3.50;;;;;;;14.35;73.38;99105.34;112782;1193;64687;-83
2021/10/15 09:36:25;;;;;;;8.80;4.00;;;;;;;14.47;73.09;99103.27;112912;1192;61043;-86
2021/10/15 09:38:52;;;;;;;4.40;3.50;;;;;;;14.54;72.87;99099.20;112618;1193;62620;-86
2021/10/15 09:41:39;;;;;;;3.90;3.40;;;;;;;14.60;72.83;99100.31;112593;1193;61014;-87
2021/10/15 09:44:33;;;;;;;5.20;4.50;;;;;;;14.67;72.74;99094.88;112711;1190;61046;-87
2021/10/15 09:47:18;;;;;;;3.70;3.40;;;;;;;14.76;72.29;99091.71;112693;1192;66190;-89
2021/10/15 09:49:56;;;;;;;7.90;3.70;;;;;;;14.76;71.66;99095.97;112700;1193;61029;-88
2021/10/15 09:52:27;;;;;;;4.00;3.10;;;;;;;14.78;71.25;99093.30;112560;1191;64003;-87
2021/10/15 09:54:56;;;;;;;3.70;3.30;;;;;;;14.79;70.86;99091.80;112664;1190;61004;-86
2021/10/15 09:57:32;;;;;;;3.70;2.80;;;;;;;14.77;70.67;99091.78;112665;1193;60938;-87
2021/10/15 10:00:00;;;;;;;3.50;3.00;;;;;;;14.76;70.81;99090.95;112638;1192;64637;-86
2021/10/15 10:02:28;;;;;;;3.90;3.10;;;;;;;14.80;70.75;99086.70;112634;1192;61000;-87
2021/10/15 10:04:55;;;;;;;6.30;3.80;;;;;;;14.83;70.91;99082.48;112676;1192;62649;-86
2021/10/15 10:07:24;;;;;;;4.30;3.90;;;;;;;14.88;70.57;99082.41;112670;1191;61048;-87
2021/10/15 10:09:51;;;;;;;4.30;3.70;;;;;;;14.89;70.34;99080.36;112598;1192;61123;-86
2021/10/15 10:12:19;;;;;;;4.90;3.60;;;;;;;14.92;70.20;99076.19;112679;1193;64791;-87
2021/10/15 10:14:47;;;;;;;4.20;3.40;;;;;;;14.96;70.21;99075.00;112582;1192;60975;-87
2021/10/15 10:17:20;;;;;;;4.60;3.60;;;;;;;15.02;70.35;99074.85;112550;1192;62679;-87
2021/10/15 10:19:50;;;;;;;4.20;3.40;;;;;;;15.09;70.17;99069.73;112685;1191;61042;-87
2021/10/15 10:22:19;;;;;;;4.00;3.00;;;;;;;15.17;70.13;99067.64;112721;1190;61036;-88
2021/10/15 10:24:51;;;;;;;5.20;4.10;;;;;;;15.21;69.78;99068.64;112675;1193;66009;-87
2021/10/15 10:27:31;;;;;;;5.00;3.70;;;;;;;15.23;69.84;99070.59;112730;1193;60972;-88
2021/10/15 10:29:58;;;;;;;3.80;3.10;;;;;;;15.28;69.56;99067.30;112756;1192;64082;-88
2021/10/15 10:32:27;;;;;;;4.80;3.50;;;;;;;15.30;69.23;99065.16;112730;1190;60973;-88
2021/10/15 10:34:54;;;;;;;3.90;3.50;;;;;;;15.32;69.09;99062.85;112684;1192;61107;-88
2021/10/15 10:37:21;;;;;;;3.40;2.70;;;;;;;15.35;69.18;99060.06;112701;1193;66003;-87
2021/10/15 10:40:06;;;;;;;4.30;3.40;;;;;;;15.38;69.09;99055.89;112619;1193;60979;-86
2021/10/15 10:42:33;;;;;;;4.50;3.70;;;;;;;15.41;68.92;99060.27;112674;1193;63075;-89
2021/10/15 10:45:00;;;;;;;5.50;5.00;;;;;;;15.44;68.63;99060.73;112689;1193;61074;-86
2021/10/15 10:47:28;;;;;;;4.80;3.50;;;;;;;15.41;68.70;99059.89;112701;1190;60978;-88
2021/10/15 10:50:05;;;;;;;3.00;2.70;;;;;;;15.39;68.54;99062.21;112727;1192;66171;-87
2021/10/15 10:52:40;;;;;;;3.30;2.80;;;;;;;15.35;68.43;99059.09;112779;1193;60939;-88
2021/10/15 10:55:07;;;;;;;3.70;2.70;;;;;;;15.32;68.44;99058.66;112592;1193;64003;-87
2021/10/15 10:57:42;;;;;;;3.80;2.50;;;;;;;15.30;67.98;99056.21;112769;1193;61014;-87
2021/10/15 11:00:18;;;;;;;6.20;3.50;;;;;;;15.24;68.18;99056.16;112946;1190;61052;-87
2021/10/15 11:02:55;;;;;;;3.80;3.50;;;;;;;15.26;68.75;99052.02;112632;1193;64675;-88
2021/10/15 11:05:41;;;;;;;3.10;2.70;;;;;;;15.32;68.38;99048.52;112728;1193;61027;-87
2021/10/15 11:08:23;;;;;;;2.90;2.60;;;;;;;15.31;68.23;99045.59;112725;1193;62389;-88
2021/10/15 11:10:51;;;;;;;6.30;3.70;;;;;;;15.29;68.13;99044.48;112661;1190;61052;-86
2021/10/15 11:13:32;;;;;;;6.90;4.80;;;;;;;15.27;67.94;99043.89;112890;1190;61088;-87
2021/10/15 11:16:00;;;;;;;6.50;4.80;;;;;;;15.29;68.16;99043.77;112800;1193;66039;-87
2021/10/15 11:18:27;;;;;;;4.90;3.90;;;;;;;15.39;68.59;99037.49;112855;1193;61094;-86
2021/10/15 11:20:55;;;;;;;6.30;3.80;;;;;;;15.46;68.13;99032.93;112718;1193;64003;-86
2021/10/15 11:23:21;;;;;;;5.40;4.20;;;;;;;15.47;68.06;99028.23;112653;1190;60973;-87
2021/10/15 11:25:49;;;;;;;5.40;3.70;;;;;;;15.47;67.58;99024.99;112661;1192;61061;-87
2021/10/15 11:28:19;;;;;;;4.10;3.70;;;;;;;15.44;67.59;99024.94;112637;1192;65999;-87
2021/10/15 11:30:48;;;;;;;4.70;4.10;;;;;;;15.48;67.89;99024.73;112672;1193;61164;-86
2021/10/15 11:33:18;;;;;;;3.50;3.20;;;;;;;15.53;67.54;99021.40;112702;1193;62620;-88
2021/10/15 11:35:48;;;;;;;3.80;3.30;;;;;;;15.53;67.41;99020.55;112653;1190;60992;-88
2021/10/15 11:38:21;;;;;;;4.30;3.70;;;;;;;15.53;67.93;99023.71;112691;1192;61154;-88
2021/10/15 11:40:50;;;;;;;3.70;3.30;;;;;;;15.56;67.56;99025.28;112659;1193;66017;-87
2021/10/15 11:43:24;;;;;;;4.00;3.60;;;;;;;15.52;67.15;99023.80;112714;1193;61023;-87